Nearby METAR Reports

 

KVSF - Springfield, Vermont, USA
Distance from station: WNW 17mi, 27km
Updated: Sun, Dec-16-2018 11:54am EST
Overcast
Overcast
 Wind from calm
Wind: Calm
Temperature: 30°F , -1°C
Dew Point: 28°F , -2°C
Humidity: 93%
Barometer: 30.10 inHg , 1019.3 hPa
Clouds: Overcast
Visibility: 10 miles , 16 km
Cloud details: Overcast 2200 ft
2018/12/16 16:54 KVSF 161654Z AUTO 00000KT 10SM OVC022 M01/M02 A3010 RMK AO2 SLP202 T10061022
KLEB - Lebanon, New Hampshire, USA
Distance from station: NNW 24mi, 39km
Updated: Sun, Dec-16-2018 12:07pm EST
Partly cloudy
Partly cloudy
 Wind from calm
Wind: Calm
Temperature: 34°F , 1°C
Dew Point: 27°F , -3°C
Humidity: 75%
Barometer: 30.08 inHg , 1018.6 hPa
Clouds: Partly cloudy
Visibility: 10 miles , 16 km
Cloud details: Partly cloudy 2500 ft
2018/12/16 17:07 KLEB 161707Z 00000KT 10SM SCT025 01/M03 A3008 RMK AO2 PRESFR T00061033
 
KEEN - Keene/Dillant, New Hampshire, USA
Distance from station: S 28mi, 45km
Updated: Sun, Dec-16-2018 11:56am EST
Light rain, Overcast
Light rain, Overcast
 Wind from N
Wind: N 10 mph , 17 km/h
Temperature: 36°F , 2°C
Wind Chill: 29°F , -2°C
Dew Point: 30°F , -1°C
Humidity: 81%
Barometer: 30.07 inHg , 1018.3 hPa
Summary: Light rain
Clouds: Overcast
Visibility: 10 miles , 16 km
Cloud details: Overcast 2000 ft
2018/12/16 16:56 KEEN 161656Z AUTO 01009KT 10SM -RA OVC020 02/M01 A3007 RMK AO2 UPB36E38RAB38 SLP204 P0000 T00171011 FZRANO $
KAFN - Jaffrey, New Hampshire, USA
Distance from station: SSE 35mi, 57km
Updated: Sun, Dec-16-2018 11:52am EST
Overcast
Overcast
 Wind from NNE
Wind: NNE 3 mph , 6 km/h
Temperature: 34°F , 1°C
Dew Point: 30°F , -1°C
Humidity: 87%
Barometer: 30.05 inHg , 1017.6 hPa
Clouds: Overcast
Visibility: 10 miles , 16 km
Cloud details: Overcast 1300 ft
2018/12/16 16:52 KAFN 161652Z AUTO 03003KT 10SM OVC013 01/M01 A3005 RMK AO2 RAB20E23UPB45E47SNB23E45B47E48 SLP192 P0000 T00111006
 
KCON - Concord, New Hampshire, USA
Distance from station: E 35mi, 57km
Updated: Sun, Dec-16-2018 11:51am EST
Overcast
Overcast
 Wind from NE
Wind: NE 3 mph , 6 km/h
Temperature: 36°F , 2°C
Dew Point: 27°F , -3°C
Humidity: 70%
Barometer: 30.11 inHg , 1019.6 hPa
Clouds: Overcast
Visibility: 10 miles , 16 km
Cloud details: Overcast 2000 ft
2018/12/16 16:51 KCON 161651Z AUTO 05003KT 10SM OVC020 02/M03 A3011 RMK AO2 SLP201 T00221028
K1P1 - Plymouth, New Hampshire, USA
Distance from station: NNE 41mi, 66km
Updated: Sun, Dec-16-2018 12:15pm EST
Clear
Clear
 Wind from NE
Wind: NE 3 mph , 6 km/h
Temperature: 34°F , 1°C
Dew Point: 27°F , -3°C
Humidity: 75%
Barometer: 30.10 inHg , 1019.3 hPa
Clouds: Clear
Visibility: 10 miles , 16 km
2018/12/16 17:15 K1P1 161715Z AUTO 05003KT 10SM CLR 01/M03 A3010 RMK AO2 T00111027
 
KRUT - Rutland State, Vermont, USA
Distance from station: WNW 41mi, 66km
Updated: Sun, Dec-16-2018 11:56am EST
Overcast
Overcast
 Wind from SE
Wind: SE 9 mph , 15 km/h
Temperature: 36°F , 2°C
Wind Chill: 29°F , -2°C
Dew Point: 27°F , -3°C
Humidity: 70%
Barometer: 30.06 inHg , 1017.9 hPa
Clouds: Overcast
Visibility: 10 miles , 16 km
Cloud details: Overcast 2100 ft
2018/12/16 16:56 KRUT 161656Z AUTO 14008KT 110V170 10SM OVC021 02/M03 A3006 RMK AO2 SLP200 T00221028 FZRANO PNO $
KLCI - Laconia Muni, New Hampshire, USA
Distance from station: ENE 44mi, 70km
Updated: Sun, Dec-16-2018 11:56am EST
Few Clouds
Few Clouds
 Wind from ENE
Wind: ENE 6 mph , 9 km/h
Temperature: 36°F , 2°C
Wind Chill: 31°F , -1°C
Dew Point: 25°F , -4°C
Humidity: 65%
Barometer: 30.12 inHg , 1020 hPa
Clouds: Few Clouds
Visibility: 10 miles , 16 km
Cloud details: Few Clouds 2200 ft
2018/12/16 16:56 KLCI 161656Z AUTO 07005KT 10SM FEW022 02/M04 A3012 RMK AO2 SLP221 T00171039 FZRANO $
 
KMHT - Manchester, New Hampshire, USA
Distance from station: ESE 46mi, 73km
Updated: Sun, Dec-16-2018 12:10pm EST
Overcast
Overcast
 Wind from NNE
Wind: NNE 9 mph , 15 km/h
Temperature: 37°F , 3°C
Wind Chill: 30°F , -1°C
Dew Point: 30°F , -1°C
Humidity: 75%
Barometer: 30.07 inHg , 1018.3 hPa
Clouds: Overcast
Visibility: 10 miles , 16 km
Cloud details: Mostly cloudy 1400 ft
Overcast 2500 ft
2018/12/16 17:10 KMHT 161710Z 03008KT 10SM BKN014 OVC025 03/M01 A3007 RMK AO2 T00281011
KASH - Nashua/Boire Fld, New Hampshire, USA
Distance from station: SE 49mi, 79km
Updated: Sun, Dec-16-2018 11:56am EST
Mostly cloudy
Mostly cloudy
 Wind from NNE
Wind: NNE 7 mph , 11 km/h
Temperature: 37°F , 3°C
Wind Chill: 32°F , 0°C
Dew Point: 32°F , 0°C
Humidity: 81%
Barometer: 30.09 inHg , 1019 hPa
Clouds: Mostly cloudy
Visibility: 10 miles , 16 km
Cloud details: Mostly cloudy 2600 ft
2018/12/16 16:56 KASH 161656Z 02006KT 10SM BKN026 03/00 A3009 RMK AO2 SLP203 T00330000 $
 
KORE - Orange, Massachusetts, USA
Distance from station: S 50mi, 81km
Updated: Sun, Dec-16-2018 11:52am EST
Overcast
Overcast
 Wind from N
Wind: N 6 mph , 9 km/h
Temperature: 37°F , 3°C
Wind Chill: 32°F , 0°C
Dew Point: 30°F , -1°C
Humidity: 75%
Barometer: 30.06 inHg , 1017.9 hPa
Clouds: Overcast
Visibility: 10 miles , 16 km
Cloud details: Overcast 2100 ft
2018/12/16 16:52 KORE 161652Z AUTO 36005KT 10SM OVC021 03/M01 A3006 RMK AO2 RAE25 SLP185 P0000 T00331006